createdAt,value
2018-08-24T00:00:39.434Z,33.2
2018-08-24T00:01:41.607Z,33.2
2018-08-24T00:02:44.070Z,33.2
2018-08-24T00:03:46.237Z,33.2
2018-08-24T00:04:48.414Z,33.2
2018-08-24T00:05:50.600Z,33.2
2018-08-24T00:06:52.763Z,33.2
2018-08-24T00:07:55.227Z,33.2
2018-08-24T00:08:57.141Z,33.2
2018-08-24T00:09:59.327Z,33.3
2018-08-24T00:11:00.998Z,33.3
2018-08-24T00:12:03.144Z,33.3
2018-08-24T00:13:05.337Z,33.3
2018-08-24T00:14:07.525Z,33.3
2018-08-24T00:15:09.686Z,33.3
2018-08-24T00:16:12.130Z,33.3
2018-08-24T00:17:14.590Z,33.3
2018-08-24T00:18:16.772Z,33.3
2018-08-24T00:19:18.933Z,33.3
2018-08-24T00:20:21.158Z,33.3
2018-08-24T00:21:23.305Z,33.3
2018-08-24T00:22:25.179Z,33.3
2018-08-24T00:23:27.621Z,33.3
2018-08-24T00:24:29.835Z,33.3
2018-08-24T00:25:32.292Z,33.3
2018-08-24T00:26:34.446Z,33.3
2018-08-24T00:27:36.912Z,33.3
2018-08-24T00:28:38.531Z,33.3
2018-08-24T00:29:40.156Z,33.3
2018-08-24T00:30:42.622Z,33.3
2018-08-24T00:31:45.211Z,33.3
2018-08-24T00:32:47.607Z,33.3
2018-08-24T00:33:50.070Z,33.3
2018-08-24T00:34:52.239Z,33.3
2018-08-24T00:35:54.420Z,33.4
2018-08-24T00:36:56.619Z,33.4
2018-08-24T00:37:57.966Z,33.4
2018-08-24T00:39:00.114Z,33.4
2018-08-24T00:40:02.350Z,33.4
2018-08-24T00:41:04.812Z,33.4
2018-08-24T00:42:07.259Z,33.4
2018-08-24T00:43:09.704Z,33.4
2018-08-24T00:44:12.145Z,33.4
2018-08-24T00:45:14.601Z,33.4
2018-08-24T00:46:16.756Z,33.4
2018-08-24T00:47:19.203Z,33.4
2018-08-24T00:48:21.661Z,33.4
2018-08-24T00:49:24.106Z,33.4
2018-08-24T00:50:26.306Z,33.4
2018-08-24T00:51:28.472Z,33.4
2018-08-24T00:52:30.926Z,33.4
2018-08-24T00:53:33.093Z,33.4
2018-08-24T00:54:35.534Z,33.4
2018-08-24T00:55:37.428Z,33.4
2018-08-24T00:56:39.883Z,33.4
2018-08-24T00:57:42.337Z,33.4
2018-08-24T00:58:44.524Z,33.4
2018-08-24T00:59:46.414Z,33.4
2018-08-24T01:00:48.861Z,33.4
2018-08-24T01:01:51.304Z,33.4
2018-08-24T01:02:53.241Z,33.4
2018-08-24T01:03:55.446Z,33.4
2018-08-24T01:04:57.338Z,33.4
2018-08-24T01:05:59.245Z,33.4
2018-08-24T01:07:01.432Z,33.4
2018-08-24T01:08:03.902Z,33.4
2018-08-24T01:09:06.070Z,33.4
2018-08-24T01:10:08.514Z,33.4
2018-08-24T01:11:10.395Z,33.4
2018-08-24T01:12:12.588Z,33.4
2018-08-24T01:13:14.770Z,33.4
2018-08-24T01:14:17.216Z,33.4
2018-08-24T01:15:18.865Z,33.4
2018-08-24T01:16:20.769Z,33.4
2018-08-24T01:17:22.382Z,33.4
2018-08-24T01:18:24.830Z,33.4
2018-08-24T01:19:27.292Z,33.4
2018-08-24T01:20:29.487Z,33.4
2018-08-24T01:21:31.952Z,33.4
2018-08-24T01:22:34.397Z,33.4
2018-08-24T01:23:36.583Z,33.4
2018-08-24T01:24:39.039Z,33.4
2018-08-24T01:25:41.477Z,33.4
2018-08-24T01:26:43.930Z,33.4
2018-08-24T01:27:46.103Z,33.4
2018-08-24T01:28:48.281Z,33.4
2018-08-24T01:29:50.739Z,33.4
2018-08-24T01:30:52.661Z,33.4
2018-08-24T01:31:54.848Z,33.4
2018-08-24T01:32:57.037Z,33.4
2018-08-24T01:33:59.491Z,33.4
2018-08-24T01:35:01.386Z,33.4
2018-08-24T01:36:03.573Z,33.4
2018-08-24T01:37:06.032Z,33.4
2018-08-24T01:38:08.477Z,33.4
2018-08-24T01:39:10.941Z,33.5
2018-08-24T01:40:13.137Z,33.4
2018-08-24T01:41:15.576Z,33.4
2018-08-24T01:42:17.765Z,33.5
2018-08-24T01:43:20.196Z,33.4
2018-08-24T01:44:22.654Z,33.5
2018-08-24T01:45:24.815Z,33.4
2018-08-24T01:46:26.725Z,33.5
2018-08-24T01:47:29.188Z,33.5
2018-08-24T01:48:31.655Z,33.5
2018-08-24T01:49:34.122Z,33.5
2018-08-24T01:50:36.551Z,33.5
2018-08-24T01:51:39.007Z,33.5
2018-08-24T01:52:41.205Z,33.5
2018-08-24T01:53:43.385Z,33.5
2018-08-24T01:54:45.852Z,33.5
2018-08-24T01:55:48.306Z,33.5
2018-08-24T01:56:50.755Z,33.5
2018-08-24T01:57:52.105Z,33.5
2018-08-24T01:58:54.621Z,33.5
2018-08-24T01:59:57.123Z,33.5
2018-08-24T02:00:59.559Z,33.5
2018-08-24T02:02:02.012Z,33.5
2018-08-24T02:03:03.922Z,33.5
2018-08-24T02:04:05.826Z,33.5
2018-08-24T02:05:07.449Z,33.5
2018-08-24T02:06:09.902Z,33.5
2018-08-24T02:07:11.808Z,33.5
2018-08-24T02:08:14.256Z,33.5
2018-08-24T02:09:16.705Z,33.5
2018-08-24T02:10:18.882Z,33.5
2018-08-24T02:11:20.775Z,33.5
2018-08-24T02:12:22.956Z,33.5
2018-08-24T02:13:25.158Z,33.5
2018-08-24T02:14:27.651Z,33.5
2018-08-24T02:15:30.306Z,33.5
2018-08-24T02:16:32.486Z,33.5
2018-08-24T02:17:34.403Z,33.5
2018-08-24T02:18:36.856Z,33.5
2018-08-24T02:19:39.309Z,33.5
2018-08-24T02:20:41.220Z,33.5
2018-08-24T02:21:43.662Z,33.5
2018-08-24T02:22:45.812Z,33.5
2018-08-24T02:23:47.973Z,33.5
2018-08-24T02:24:50.432Z,33.5
2018-08-24T02:25:52.325Z,33.5
2018-08-24T02:26:54.515Z,33.5
2018-08-24T02:27:56.696Z,33.5
2018-08-24T02:28:59.154Z,33.5
2018-08-24T02:30:01.341Z,33.5
2018-08-24T02:31:02.973Z,33.5
2018-08-24T02:32:05.233Z,33.5
2018-08-24T02:33:07.670Z,33.5
2018-08-24T02:34:10.126Z,33.5
2018-08-24T02:35:12.042Z,33.5
2018-08-24T02:36:14.502Z,33.5
2018-08-24T02:37:16.964Z,33.5
2018-08-24T02:38:19.430Z,33.5
2018-08-24T02:39:21.360Z,33.5
2018-08-24T02:40:23.251Z,33.5
2018-08-24T02:41:25.689Z,33.5
2018-08-24T02:42:27.604Z,33.5
2018-08-24T02:43:29.487Z,33.5
2018-08-24T02:44:31.684Z,33.5
2018-08-24T02:45:34.146Z,33.5
2018-08-24T02:46:36.332Z,33.5
2018-08-24T02:47:38.783Z,33.5
2018-08-24T02:48:40.976Z,33.5
2018-08-24T02:49:43.168Z,33.5
2018-08-24T02:50:45.367Z,33.5
2018-08-24T02:51:47.831Z,33.5
2018-08-24T02:52:49.996Z,33.5
2018-08-24T02:53:52.168Z,33.5
2018-08-24T02:54:54.624Z,33.5
2018-08-24T02:55:56.776Z,33.5
2018-08-24T02:56:58.386Z,33.5
2018-08-24T02:58:00.027Z,33.5
2018-08-24T02:59:02.487Z,33.5
2018-08-24T03:00:04.688Z,33.5
2018-08-24T03:01:07.125Z,33.5
2018-08-24T03:02:09.585Z,33.5
2018-08-24T03:03:11.507Z,33.5
2018-08-24T03:04:13.413Z,33.5
2018-08-24T03:05:15.954Z,33.5
2018-08-24T03:06:18.640Z,33.5
2018-08-24T03:07:20.796Z,33.4
2018-08-24T03:08:22.747Z,33.4
2018-08-24T03:09:25.570Z,33.4
2018-08-24T03:10:28.026Z,33.4
2018-08-24T03:11:30.211Z,33.4
2018-08-24T03:12:32.361Z,33.4
2018-08-24T03:13:34.794Z,33.4
2018-08-24T03:14:36.981Z,33.4
2018-08-24T03:15:39.167Z,33.3
2018-08-24T03:16:41.362Z,33.3
2018-08-24T03:17:43.306Z,33.3
2018-08-24T03:18:45.764Z,33.3
2018-08-24T03:19:48.223Z,33.3
2018-08-24T03:20:50.407Z,33.3
2018-08-24T03:21:52.307Z,33.3
2018-08-24T03:22:54.477Z,33.3
2018-08-24T03:23:56.652Z,33.3
2018-08-24T03:24:59.101Z,33.3
2018-08-24T03:26:00.997Z,33.3
2018-08-24T03:27:03.458Z,33.3
2018-08-24T03:28:05.639Z,33.3
2018-08-24T03:29:08.099Z,33.3
2018-08-24T03:30:10.288Z,33.3
2018-08-24T03:31:12.447Z,33.3
2018-08-24T03:32:14.905Z,33.3
2018-08-24T03:33:17.047Z,33.2
2018-08-24T03:34:18.961Z,33.3
2018-08-24T03:35:21.126Z,33.2
2018-08-24T03:36:23.026Z,33.2
2018-08-24T03:37:25.558Z,33.2
2018-08-24T03:38:27.713Z,33.2
2018-08-24T03:39:29.619Z,33.2
2018-08-24T03:40:31.498Z,33.2
2018-08-24T03:41:33.963Z,33.2
2018-08-24T03:42:36.145Z,33.2
2018-08-24T03:43:38.329Z,33.2
2018-08-24T03:44:40.527Z,33.2
2018-08-24T03:45:42.632Z,33.2
2018-08-24T03:46:45.269Z,33.2
2018-08-24T03:47:47.478Z,33.2
2018-08-24T03:48:49.951Z,33.2
2018-08-24T03:49:52.139Z,33.2
2018-08-24T03:50:54.617Z,33.2
2018-08-24T03:51:57.076Z,33.2
2018-08-24T03:52:59.654Z,33.2
2018-08-24T03:54:01.723Z,33.2
2018-08-24T03:55:03.907Z,33.2
2018-08-24T03:56:06.371Z,33.2
2018-08-24T03:57:08.536Z,33.2
2018-08-24T03:58:10.720Z,33.2
2018-08-24T03:59:12.908Z,33.2
2018-08-24T04:00:15.096Z,33.1
2018-08-24T04:01:17.289Z,33.1
2018-08-24T04:02:19.746Z,33.1
2018-08-24T04:03:21.927Z,33.1
2018-08-24T04:04:24.388Z,33.1
2018-08-24T04:05:26.561Z,33.1
2018-08-24T04:06:29.010Z,33.1
2018-08-24T04:07:31.207Z,33.1
2018-08-24T04:08:33.114Z,33.1
2018-08-24T04:09:35.570Z,33.1
2018-08-24T04:10:37.736Z,33.1
2018-08-24T04:11:40.186Z,33.1
2018-08-24T04:12:42.845Z,33.1
2018-08-24T04:13:45.027Z,33.1
2018-08-24T04:14:47.477Z,33.1
2018-08-24T04:15:49.927Z,33.1
2018-08-24T04:16:51.822Z,33.1
2018-08-24T04:17:53.717Z,33.1
2018-08-24T04:18:55.886Z,33.1
2018-08-24T04:19:57.806Z,33.1
2018-08-24T04:20:59.694Z,33.1
2018-08-24T04:22:02.137Z,33.1
2018-08-24T04:23:04.306Z,33
2018-08-24T04:24:06.745Z,33
2018-08-24T04:25:08.671Z,33
2018-08-24T04:26:11.533Z,33
2018-08-24T04:27:13.807Z,33
2018-08-24T04:28:16.007Z,33
2018-08-24T04:29:18.193Z,33
2018-08-24T04:30:20.393Z,33
2018-08-24T04:31:22.034Z,33
2018-08-24T04:32:23.934Z,33
2018-08-24T04:33:26.137Z,33
2018-08-24T04:34:28.598Z,33
2018-08-24T04:35:30.794Z,33
2018-08-24T04:36:32.986Z,33
2018-08-24T04:37:35.166Z,33
2018-08-24T04:38:37.612Z,33
2018-08-24T04:39:40.065Z,33
2018-08-24T04:40:42.272Z,33
2018-08-24T04:41:44.170Z,33
2018-08-24T04:42:46.618Z,33
2018-08-24T04:43:48.786Z,33
2018-08-24T04:44:50.682Z,32.9
2018-08-24T04:45:52.956Z,32.9
2018-08-24T04:46:55.070Z,32.9
2018-08-24T04:47:56.979Z,32.9
2018-08-24T04:48:59.127Z,32.9
2018-08-24T04:50:01.294Z,32.9
2018-08-24T04:51:03.476Z,32.9
2018-08-24T04:52:05.675Z,32.9
2018-08-24T04:53:08.121Z,32.9
2018-08-24T04:54:10.581Z,32.9
2018-08-24T04:55:12.475Z,32.9
2018-08-24T04:56:14.626Z,32.9
2018-08-24T04:57:17.079Z,32.9
2018-08-24T04:58:19.528Z,32.9
2018-08-24T04:59:22.226Z,32.9
2018-08-24T05:00:24.702Z,32.9
2018-08-24T05:01:26.868Z,32.9
2018-08-24T05:02:28.776Z,32.9
2018-08-24T05:03:31.221Z,32.9
2018-08-24T05:04:33.674Z,32.9
2018-08-24T05:05:36.215Z,32.9
2018-08-24T05:06:38.467Z,32.9
2018-08-24T05:07:40.390Z,32.9
2018-08-24T05:08:42.840Z,32.9
2018-08-24T05:09:45.030Z,32.9
2018-08-24T05:10:47.493Z,32.9
2018-08-24T05:11:49.956Z,32.9
2018-08-24T05:12:51.549Z,32.9
2018-08-24T05:13:53.739Z,32.9
2018-08-24T05:14:56.191Z,32.9
2018-08-24T05:15:58.370Z,32.9
2018-08-24T05:17:00.804Z,32.9
2018-08-24T05:18:02.735Z,32.9
2018-08-24T05:19:05.203Z,32.9
2018-08-24T05:20:07.663Z,32.9
2018-08-24T05:21:10.237Z,32.9
2018-08-24T05:22:12.408Z,32.9
2018-08-24T05:23:14.850Z,32.9
2018-08-24T05:24:16.758Z,32.9
2018-08-24T05:25:18.646Z,32.9
2018-08-24T05:26:20.813Z,32.9
2018-08-24T05:27:23.267Z,32.9
2018-08-24T05:28:24.893Z,32.9
2018-08-24T05:29:27.350Z,32.9
2018-08-24T05:30:29.259Z,32.9
2018-08-24T05:31:31.442Z,32.9
2018-08-24T05:32:33.589Z,32.9
2018-08-24T05:33:36.038Z,32.9
2018-08-24T05:34:38.498Z,32.9
2018-08-24T05:35:41.170Z,32.9
2018-08-24T05:36:43.990Z,32.9
2018-08-24T05:37:45.643Z,32.9
2018-08-24T05:38:48.091Z,32.9
2018-08-24T05:39:50.543Z,32.9
2018-08-24T05:40:53.000Z,32.9
2018-08-24T05:41:55.193Z,32.9
2018-08-24T05:42:57.347Z,32.9
2018-08-24T05:43:59.799Z,32.9
2018-08-24T05:45:01.987Z,32.9
2018-08-24T05:46:03.865Z,32.9
2018-08-24T05:47:06.311Z,32.9
2018-08-24T05:48:08.502Z,32.9
2018-08-24T05:49:10.689Z,32.9
2018-08-24T05:50:12.875Z,32.9
2018-08-24T05:51:15.059Z,32.9
2018-08-24T05:52:17.232Z,32.9
2018-08-24T05:53:19.700Z,32.9
2018-08-24T05:54:22.149Z,32.9
2018-08-24T05:55:24.611Z,32.9
2018-08-24T05:56:26.517Z,32.9
2018-08-24T05:57:28.397Z,32.9
2018-08-24T05:58:30.848Z,32.9
2018-08-24T05:59:33.025Z,32.9
2018-08-24T06:00:35.216Z,32.9
2018-08-24T06:01:37.393Z,32.9
2018-08-24T06:02:39.258Z,32.9
2018-08-24T06:03:41.715Z,32.9
2018-08-24T06:04:44.179Z,32.9
2018-08-24T06:05:46.455Z,32.9
2018-08-24T06:06:48.656Z,32.9
2018-08-24T06:07:51.101Z,32.9
2018-08-24T06:08:53.563Z,32.9
2018-08-24T06:09:56.020Z,32.9
2018-08-24T06:10:58.164Z,32.9
2018-08-24T06:12:00.073Z,32.9
2018-08-24T06:13:02.249Z,32.9
2018-08-24T06:14:04.688Z,32.9
2018-08-24T06:15:07.136Z,32.9
2018-08-24T06:16:09.317Z,32.9
2018-08-24T06:17:11.801Z,32.9
2018-08-24T06:18:14.001Z,32.9
2018-08-24T06:19:16.240Z,32.9
2018-08-24T06:20:18.693Z,32.9
2018-08-24T06:21:21.160Z,32.9
2018-08-24T06:22:23.635Z,32.9
2018-08-24T06:23:25.830Z,32.9
2018-08-24T06:24:28.487Z,32.9
2018-08-24T06:25:30.835Z,32.9
2018-08-24T06:26:32.983Z,32.9
2018-08-24T06:27:34.912Z,32.9
2018-08-24T06:28:37.356Z,32.9
2018-08-24T06:29:39.538Z,32.9
2018-08-24T06:30:41.155Z,32.9
2018-08-24T06:31:43.306Z,32.9
2018-08-24T06:32:45.552Z,32.9
2018-08-24T06:33:48.180Z,32.9
2018-08-24T06:34:50.367Z,32.9
2018-08-24T06:35:52.548Z,32.9
2018-08-24T06:36:54.593Z,32.9
2018-08-24T06:37:56.807Z,32.9
2018-08-24T06:38:58.429Z,32.9
2018-08-24T06:40:00.335Z,32.9
2018-08-24T06:41:02.511Z,32.9
2018-08-24T06:42:05.155Z,32.9
2018-08-24T06:43:07.331Z,32.9
2018-08-24T06:44:09.517Z,32.9
2018-08-24T06:45:11.980Z,32.9
2018-08-24T06:46:13.617Z,32.9
2018-08-24T06:47:16.370Z,32.9
2018-08-24T06:48:18.731Z,32.8
2018-08-24T06:49:20.902Z,32.8
2018-08-24T06:50:23.385Z,32.8
2018-08-24T06:51:25.576Z,32.8
2018-08-24T06:52:27.756Z,32.8
2018-08-24T06:53:30.247Z,32.8
2018-08-24T06:54:33.048Z,32.8
2018-08-24T06:55:35.505Z,32.8
2018-08-24T06:56:37.688Z,32.8
2018-08-24T06:57:39.316Z,32.8
2018-08-24T06:58:41.513Z,32.8
2018-08-24T06:59:43.201Z,32.8
2018-08-24T07:00:45.607Z,32.8
2018-08-24T07:01:47.789Z,32.8
2018-08-24T07:02:49.948Z,32.8
2018-08-24T07:03:52.401Z,32.8
2018-08-24T07:04:54.852Z,32.8
2018-08-24T07:05:57.608Z,32.8
2018-08-24T07:06:59.796Z,32.8
2018-08-24T07:08:01.989Z,32.8
2018-08-24T07:09:04.444Z,32.8
2018-08-24T07:10:06.331Z,32.8
2018-08-24T07:11:08.476Z,32.8
2018-08-24T07:12:10.664Z,32.8
2018-08-24T07:13:12.830Z,32.8
2018-08-24T07:14:14.461Z,32.8
2018-08-24T07:15:16.916Z,32.8
2018-08-24T07:16:18.828Z,32.8
2018-08-24T07:17:20.979Z,32.8
2018-08-24T07:18:23.150Z,32.8
2018-08-24T07:19:25.061Z,32.8
2018-08-24T07:20:27.551Z,32.8
2018-08-24T07:21:29.997Z,32.8
2018-08-24T07:22:32.461Z,32.8
2018-08-24T07:23:34.912Z,32.8
2018-08-24T07:24:36.828Z,32.8
2018-08-24T07:25:39.021Z,32.8
2018-08-24T07:26:41.167Z,32.8
2018-08-24T07:27:43.084Z,32.8
2018-08-24T07:28:45.526Z,32.8
2018-08-24T07:29:47.426Z,32.8
2018-08-24T07:30:49.339Z,32.8
2018-08-24T07:31:51.537Z,32.8
2018-08-24T07:32:53.991Z,32.8
2018-08-24T07:33:56.444Z,32.8
2018-08-24T07:34:58.617Z,32.8
2018-08-24T07:36:00.814Z,32.8
2018-08-24T07:37:02.977Z,32.8
2018-08-24T07:38:05.160Z,32.8
2018-08-24T07:39:07.358Z,32.8
2018-08-24T07:40:09.824Z,32.8
2018-08-24T07:41:12.026Z,32.8
2018-08-24T07:42:14.191Z,32.8
2018-08-24T07:43:16.649Z,32.8
2018-08-24T07:44:18.803Z,32.8
2018-08-24T07:45:20.405Z,32.8
2018-08-24T07:46:22.869Z,32.8
2018-08-24T07:47:25.331Z,32.8
2018-08-24T07:48:27.777Z,32.8
2018-08-24T07:49:30.508Z,32.8
2018-08-24T07:50:32.517Z,32.8
2018-08-24T07:51:35.089Z,32.8
2018-08-24T07:52:37.599Z,32.8
2018-08-24T07:53:39.647Z,32.8
2018-08-24T07:54:42.099Z,32.8
2018-08-24T07:55:44.557Z,32.8
2018-08-24T07:56:46.728Z,32.8
2018-08-24T07:57:48.642Z,32.8
2018-08-24T07:58:50.811Z,32.8
2018-08-24T07:59:53.013Z,32.8
2018-08-24T08:00:55.473Z,32.8
2018-08-24T08:01:57.928Z,32.8
2018-08-24T08:02:59.856Z,32.8
2018-08-24T08:04:02.068Z,32.8
2018-08-24T08:05:04.416Z,32.8
2018-08-24T08:06:06.922Z,32.8
2018-08-24T08:07:09.135Z,32.8
2018-08-24T08:08:11.649Z,32.8
2018-08-24T08:09:14.111Z,32.8
2018-08-24T08:10:16.295Z,32.8
2018-08-24T08:11:18.752Z,32.8
2018-08-24T08:12:21.218Z,32.8
2018-08-24T08:13:23.117Z,32.8
2018-08-24T08:14:25.310Z,32.8
2018-08-24T08:15:27.761Z,32.8
2018-08-24T08:16:29.949Z,32.8
2018-08-24T08:17:32.401Z,32.8
2018-08-24T08:18:35.144Z,32.8
2018-08-24T08:19:37.888Z,32.8
2018-08-24T08:20:40.058Z,32.8
2018-08-24T08:21:42.508Z,32.8
2018-08-24T08:22:44.691Z,32.8
2018-08-24T08:23:47.149Z,32.8
2018-08-24T08:24:50.165Z,32.8
2018-08-24T08:25:52.148Z,32.8
2018-08-24T08:26:54.652Z,32.8
2018-08-24T08:27:56.587Z,32.8
2018-08-24T08:28:59.026Z,32.8
2018-08-24T08:30:00.946Z,32.8
2018-08-24T08:31:03.406Z,32.8
2018-08-24T08:32:05.570Z,32.8
2018-08-24T08:33:07.470Z,32.8
2018-08-24T08:34:09.346Z,32.8
2018-08-24T08:35:11.794Z,32.8
2018-08-24T08:36:14.236Z,32.8
2018-08-24T08:37:16.410Z,32.8
2018-08-24T08:38:18.880Z,32.8
2018-08-24T08:39:20.787Z,32.8
2018-08-24T08:40:23.241Z,32.8
2018-08-24T08:41:25.697Z,32.8
2018-08-24T08:42:28.196Z,32.8
2018-08-24T08:43:30.642Z,32.8
2018-08-24T08:44:32.834Z,32.8
2018-08-24T08:45:35.019Z,32.8
2018-08-24T08:46:37.211Z,32.8
2018-08-24T08:47:39.678Z,32.8
2018-08-24T08:48:42.126Z,32.8
2018-08-24T08:49:44.333Z,32.8
2018-08-24T08:50:46.787Z,32.8
2018-08-24T08:51:49.235Z,32.8
2018-08-24T08:52:51.684Z,32.8
2018-08-24T08:53:53.594Z,32.8
2018-08-24T08:54:56.054Z,32.8
2018-08-24T08:55:58.230Z,32.8
2018-08-24T08:57:00.672Z,32.8
2018-08-24T08:58:02.849Z,32.8
2018-08-24T08:59:05.327Z,32.8
2018-08-24T09:00:07.495Z,32.8
2018-08-24T09:01:09.397Z,32.8
2018-08-24T09:02:11.329Z,32.8
2018-08-24T09:03:13.510Z,32.8
2018-08-24T09:04:15.694Z,32.8
2018-08-24T09:05:18.155Z,32.8
2018-08-24T09:06:20.740Z,32.8
2018-08-24T09:07:22.708Z,32.8
2018-08-24T09:08:24.858Z,32.8
2018-08-24T09:09:27.049Z,32.8
2018-08-24T09:10:29.235Z,32.8
2018-08-24T09:11:31.696Z,32.8
2018-08-24T09:12:33.838Z,32.8
2018-08-24T09:13:35.731Z,32.8
2018-08-24T09:14:37.903Z,32.8
2018-08-24T09:15:39.803Z,32.8
2018-08-24T09:16:41.731Z,32.8
2018-08-24T09:17:43.404Z,32.8
2018-08-24T09:18:45.855Z,32.8
2018-08-24T09:19:48.307Z,32.8
2018-08-24T09:20:50.777Z,32.8
2018-08-24T09:21:53.224Z,32.8
2018-08-24T09:22:55.401Z,32.8
2018-08-24T09:23:57.298Z,32.8
2018-08-24T09:24:58.659Z,32.8
2018-08-24T09:26:01.118Z,32.8
2018-08-24T09:27:03.556Z,32.8
2018-08-24T09:28:05.743Z,32.8
2018-08-24T09:29:08.191Z,32.8
2018-08-24T09:30:10.362Z,32.8
2018-08-24T09:31:12.809Z,32.8
2018-08-24T09:32:15.009Z,32.8
2018-08-24T09:33:16.914Z,32.8
2018-08-24T09:34:18.836Z,32.8
2018-08-24T09:35:21.274Z,32.8
2018-08-24T09:36:23.176Z,32.8
2018-08-24T09:37:25.079Z,32.8
2018-08-24T09:38:27.295Z,32.8
2018-08-24T09:39:29.484Z,32.8
2018-08-24T09:40:31.678Z,32.8
2018-08-24T09:41:34.153Z,32.8
2018-08-24T09:42:36.604Z,32.8
2018-08-24T09:43:38.784Z,32.8
2018-08-24T09:44:40.976Z,32.8
2018-08-24T09:45:43.429Z,32.8
2018-08-24T09:46:45.906Z,32.8
2018-08-24T09:47:48.354Z,32.8
2018-08-24T09:48:50.248Z,32.8
2018-08-24T09:49:52.444Z,32.8
2018-08-24T09:50:54.645Z,32.8
2018-08-24T09:51:57.098Z,32.8
2018-08-24T09:52:58.981Z,32.8
2018-08-24T09:54:01.169Z,32.8
2018-08-24T09:55:03.348Z,32.8
2018-08-24T09:56:05.828Z,32.8
2018-08-24T09:57:08.007Z,32.8
2018-08-24T09:58:10.455Z,32.8
2018-08-24T09:59:12.637Z,32.8
2018-08-24T10:00:15.093Z,32.8
2018-08-24T10:01:17.555Z,32.8
2018-08-24T10:02:19.436Z,32.8
2018-08-24T10:03:21.914Z,32.8
2018-08-24T10:04:24.359Z,32.8
2018-08-24T10:05:26.289Z,32.8
2018-08-24T10:06:28.165Z,32.8
2018-08-24T10:07:31.178Z,32.8
2018-08-24T10:08:32.524Z,32.8
2018-08-24T10:09:34.720Z,32.8
2018-08-24T10:10:37.171Z,32.8
2018-08-24T10:11:39.386Z,32.8
2018-08-24T10:12:41.578Z,32.8
2018-08-24T10:13:43.729Z,32.8
2018-08-24T10:14:46.237Z,32.8
2018-08-24T10:15:48.689Z,32.8
2018-08-24T10:16:50.832Z,32.8
2018-08-24T10:17:53.026Z,32.8
2018-08-24T10:18:55.486Z,32.8
2018-08-24T10:19:57.957Z,32.8
2018-08-24T10:21:00.128Z,32.8
2018-08-24T10:22:02.585Z,32.8
2018-08-24T10:23:05.002Z,32.8
2018-08-24T10:24:07.241Z,32.8
2018-08-24T10:25:09.696Z,32.8
2018-08-24T10:26:11.868Z,32.8
2018-08-24T10:27:14.334Z,32.8
2018-08-24T10:28:16.522Z,32.8
2018-08-24T10:29:19.286Z,32.8
2018-08-24T10:30:22.055Z,32.8
2018-08-24T10:31:24.236Z,32.8
2018-08-24T10:32:26.677Z,32.8
2018-08-24T10:33:28.867Z,32.8
2018-08-24T10:34:31.354Z,32.8
2018-08-24T10:35:33.493Z,32.8
2018-08-24T10:36:35.438Z,32.8
2018-08-24T10:37:37.660Z,32.8
2018-08-24T10:38:39.832Z,32.8
2018-08-24T10:39:42.034Z,32.8
2018-08-24T10:40:44.667Z,32.8
2018-08-24T10:41:47.203Z,32.8
2018-08-24T10:42:49.391Z,32.8
2018-08-24T10:43:51.848Z,32.8
2018-08-24T10:44:54.324Z,32.8
2018-08-24T10:45:56.517Z,32.8
2018-08-24T10:46:58.711Z,32.8
2018-08-24T10:48:01.157Z,32.8
2018-08-24T10:49:03.306Z,32.8
2018-08-24T10:50:05.768Z,32.8
2018-08-24T10:51:08.053Z,32.8
2018-08-24T10:52:09.955Z,32.8
2018-08-24T10:53:12.145Z,32.8
2018-08-24T10:54:14.586Z,32.8
2018-08-24T10:55:17.076Z,32.8
2018-08-24T10:56:19.544Z,32.8
2018-08-24T10:57:21.731Z,32.8
2018-08-24T10:58:23.602Z,32.8
2018-08-24T10:59:25.777Z,32.8
2018-08-24T11:00:28.241Z,32.8
2018-08-24T11:01:30.469Z,32.8
2018-08-24T11:02:32.917Z,32.8
2018-08-24T11:03:35.127Z,32.8
2018-08-24T11:04:37.318Z,32.8
2018-08-24T11:05:39.496Z,32.8
2018-08-24T11:06:42.056Z,32.8
2018-08-24T11:07:44.134Z,32.8
2018-08-24T11:08:46.520Z,32.8
2018-08-24T11:09:48.990Z,32.8
2018-08-24T11:10:51.438Z,32.8
2018-08-24T11:11:53.619Z,32.8
2018-08-24T11:12:55.787Z,32.8
2018-08-24T11:13:57.708Z,32.8
2018-08-24T11:14:59.890Z,32.8
2018-08-24T11:16:02.343Z,32.8
2018-08-24T11:17:04.523Z,32.8
2018-08-24T11:18:06.119Z,32.8
2018-08-24T11:19:08.296Z,32.8
2018-08-24T11:20:10.196Z,32.8
2018-08-24T11:21:12.640Z,32.8
2018-08-24T11:22:14.534Z,32.8
2018-08-24T11:23:16.721Z,32.8
2018-08-24T11:24:18.650Z,32.8
2018-08-24T11:25:20.519Z,32.8
2018-08-24T11:26:22.992Z,32.8
2018-08-24T11:27:25.205Z,32.8
2018-08-24T11:28:27.669Z,32.8
2018-08-24T11:29:30.218Z,32.8
2018-08-24T11:30:32.428Z,32.8
2018-08-24T11:31:34.638Z,32.8
2018-08-24T11:32:37.091Z,32.8
2018-08-24T11:33:39.553Z,32.8
2018-08-24T11:34:41.483Z,32.8
2018-08-24T11:35:43.709Z,32.8
2018-08-24T11:36:46.209Z,32.8
2018-08-24T11:37:48.666Z,32.8
2018-08-24T11:38:50.877Z,32.8
2018-08-24T11:39:53.333Z,32.8
2018-08-24T11:40:55.526Z,32.8
2018-08-24T11:41:58.078Z,32.8
2018-08-24T11:42:59.949Z,32.8
2018-08-24T11:44:01.841Z,32.8
2018-08-24T11:45:04.287Z,32.8
2018-08-24T11:46:06.535Z,32.8
2018-08-24T11:47:08.979Z,32.8
2018-08-24T11:48:11.207Z,32.8
2018-08-24T11:49:13.662Z,32.8
2018-08-24T11:50:15.850Z,32.8
2018-08-24T11:51:18.009Z,32.8
2018-08-24T11:52:19.640Z,32.8
2018-08-24T11:53:22.095Z,32.8
2018-08-24T11:54:24.329Z,32.8
2018-08-24T11:55:26.944Z,32.8
2018-08-24T11:56:29.399Z,32.8
2018-08-24T11:57:31.583Z,32.8
2018-08-24T11:58:34.048Z,32.8
2018-08-24T11:59:36.506Z,32.8
2018-08-24T12:00:39.016Z,32.8
2018-08-24T12:01:41.176Z,32.8
2018-08-24T12:02:43.357Z,32.8
2018-08-24T12:03:45.239Z,32.8
2018-08-24T12:04:47.684Z,32.8
2018-08-24T12:05:49.602Z,32.8
2018-08-24T12:06:52.067Z,32.8
2018-08-24T12:07:54.514Z,32.8
2018-08-24T12:08:56.255Z,32.8
2018-08-24T12:09:58.437Z,32.8
2018-08-24T12:11:00.609Z,32.8
2018-08-24T12:12:02.901Z,32.8
2018-08-24T12:13:05.117Z,32.8
2018-08-24T12:14:07.377Z,32.8
2018-08-24T12:15:09.302Z,32.8
2018-08-24T12:16:11.764Z,32.8
2018-08-24T12:17:14.206Z,32.8
2018-08-24T12:18:16.473Z,32.8
2018-08-24T12:19:19.066Z,32.8
2018-08-24T12:20:21.525Z,32.8
2018-08-24T12:21:24.519Z,32.8
2018-08-24T12:22:27.177Z,32.8
2018-08-24T12:23:29.368Z,32.8
2018-08-24T12:24:31.743Z,32.8
2018-08-24T12:25:34.530Z,32.8
2018-08-24T12:26:36.996Z,32.8
2018-08-24T12:27:39.411Z,32.8
2018-08-24T12:28:41.865Z,32.8
2018-08-24T12:29:44.062Z,32.8
2018-08-24T12:30:46.603Z,32.8
2018-08-24T12:31:49.087Z,32.8
2018-08-24T12:32:50.971Z,32.8
2018-08-24T12:33:53.436Z,32.8
2018-08-24T12:34:56.125Z,32.8
2018-08-24T12:35:58.568Z,32.8
2018-08-24T12:37:00.782Z,32.8
2018-08-24T12:38:03.236Z,32.8
2018-08-24T12:39:05.219Z,32.8
2018-08-24T12:40:06.884Z,32.8
2018-08-24T12:41:09.226Z,32.8
2018-08-24T12:42:11.468Z,32.8
2018-08-24T12:43:13.958Z,32.8
2018-08-24T12:44:16.422Z,32.8
2018-08-24T12:45:18.907Z,32.8
2018-08-24T12:46:20.806Z,32.8
2018-08-24T12:47:23.020Z,32.8
2018-08-24T12:48:24.616Z,32.8
2018-08-24T12:49:27.253Z,32.8
2018-08-24T12:50:29.136Z,32.8
2018-08-24T12:51:31.597Z,32.8
2018-08-24T12:52:33.768Z,32.8
2018-08-24T12:53:36.223Z,32.8
2018-08-24T12:54:38.675Z,32.8
2018-08-24T12:55:41.130Z,32.8
2018-08-24T12:56:43.588Z,32.8
2018-08-24T12:57:45.767Z,32.8
2018-08-24T12:58:48.223Z,32.8
2018-08-24T12:59:50.504Z,32.8
2018-08-24T13:00:53.098Z,32.8
2018-08-24T13:01:55.291Z,32.8
2018-08-24T13:02:57.506Z,32.8
2018-08-24T13:03:59.701Z,32.8
2018-08-24T13:05:02.159Z,32.8
2018-08-24T13:06:04.633Z,32.8
2018-08-24T13:07:07.082Z,32.8
2018-08-24T13:08:09.541Z,32.8
2018-08-24T13:09:11.446Z,32.8
2018-08-24T13:10:13.923Z,32.8
2018-08-24T13:11:16.101Z,32.8
2018-08-24T13:12:18.567Z,32.8
2018-08-24T13:13:21.055Z,32.8
2018-08-24T13:14:23.215Z,32.8
2018-08-24T13:15:25.872Z,32.8
2018-08-24T13:16:28.041Z,32.8
2018-08-24T13:17:30.517Z,32.8
2018-08-24T13:18:32.720Z,32.8
2018-08-24T13:19:35.158Z,32.8
2018-08-24T13:20:37.360Z,32.8
2018-08-24T13:21:39.889Z,32.8
2018-08-24T13:22:42.345Z,32.8
2018-08-24T13:23:44.538Z,32.8
2018-08-24T13:24:47.004Z,32.8
2018-08-24T13:25:49.168Z,32.8
2018-08-24T13:26:51.617Z,32.8
2018-08-24T13:27:53.500Z,32.8
2018-08-24T13:28:55.960Z,32.8
2018-08-24T13:29:58.402Z,32.8
2018-08-24T13:31:00.560Z,32.8
2018-08-24T13:32:03.014Z,32.8
2018-08-24T13:33:05.188Z,32.8
2018-08-24T13:34:07.373Z,32.8
2018-08-24T13:35:09.522Z,32.8
2018-08-24T13:36:11.701Z,32.8
2018-08-24T13:37:13.993Z,32.8
2018-08-24T13:38:16.622Z,32.8
2018-08-24T13:39:19.080Z,32.8
2018-08-24T13:40:21.539Z,32.8
2018-08-24T13:41:23.731Z,32.8
2018-08-24T13:42:25.952Z,32.8
2018-08-24T13:43:28.403Z,32.8
2018-08-24T13:44:30.874Z,32.8
2018-08-24T13:45:33.335Z,32.8
2018-08-24T13:46:35.510Z,32.8
2018-08-24T13:47:38.569Z,32.8
2018-08-24T13:48:40.777Z,32.8
2018-08-24T13:49:42.959Z,32.8